sensor_id;sensor_type;location;lat;lon;timestamp;temperature;humidity
326;DHT22;150;52.352;14.058;2022-09-09T00:02:28;18.40;54.90
326;DHT22;150;52.352;14.058;2022-09-09T00:04:59;18.40;54.90
326;DHT22;150;52.352;14.058;2022-09-09T00:07:36;18.50;54.60
326;DHT22;150;52.352;14.058;2022-09-09T00:10:14;18.50;54.50
326;DHT22;150;52.352;14.058;2022-09-09T00:12:51;18.50;54.20
326;DHT22;150;52.352;14.058;2022-09-09T00:15:23;18.40;54.10
326;DHT22;150;52.352;14.058;2022-09-09T00:18:01;18.50;54.00
326;DHT22;150;52.352;14.058;2022-09-09T00:20:32;18.50;54.20
326;DHT22;150;52.352;14.058;2022-09-09T00:23:09;18.50;54.00
326;DHT22;150;52.352;14.058;2022-09-09T00:25:45;18.50;54.00
326;DHT22;150;52.352;14.058;2022-09-09T00:28:18;18.40;53.50
326;DHT22;150;52.352;14.058;2022-09-09T00:30:46;18.40;53.70
326;DHT22;150;52.352;14.058;2022-09-09T00:33:17;18.40;53.60
326;DHT22;150;52.352;14.058;2022-09-09T00:35:49;18.40;53.30
326;DHT22;150;52.352;14.058;2022-09-09T00:38:19;18.40;53.40
326;DHT22;150;52.352;14.058;2022-09-09T00:40:51;18.50;53.40
326;DHT22;150;52.352;14.058;2022-09-09T00:43:26;18.50;53.40
326;DHT22;150;52.352;14.058;2022-09-09T00:46:11;18.50;53.10
326;DHT22;150;52.352;14.058;2022-09-09T00:48:50;18.40;53.10
326;DHT22;150;52.352;14.058;2022-09-09T00:51:24;18.40;53.10
326;DHT22;150;52.352;14.058;2022-09-09T00:54:17;18.40;53.20
326;DHT22;150;52.352;14.058;2022-09-09T00:56:53;18.40;53.20
326;DHT22;150;52.352;14.058;2022-09-09T00:59:28;18.40;52.90
326;DHT22;150;52.352;14.058;2022-09-09T01:02:03;18.40;52.60
326;DHT22;150;52.352;14.058;2022-09-09T01:04:36;18.40;52.20
326;DHT22;150;52.352;14.058;2022-09-09T01:07:08;18.40;51.80
326;DHT22;150;52.352;14.058;2022-09-09T01:09:45;18.30;51.40
326;DHT22;150;52.352;14.058;2022-09-09T01:12:23;18.20;51.40
326;DHT22;150;52.352;14.058;2022-09-09T01:14:52;18.20;51.20
326;DHT22;150;52.352;14.058;2022-09-09T01:17:22;18.20;51.80
326;DHT22;150;52.352;14.058;2022-09-09T01:20:02;18.10;50.80
326;DHT22;150;52.352;14.058;2022-09-09T01:22:35;18.10;50.80
326;DHT22;150;52.352;14.058;2022-09-09T01:25:25;18.00;51.10
326;DHT22;150;52.352;14.058;2022-09-09T01:27:56;18.00;51.60
326;DHT22;150;52.352;14.058;2022-09-09T01:30:26;18.00;51.60
326;DHT22;150;52.352;14.058;2022-09-09T01:32:55;17.90;51.30
326;DHT22;150;52.352;14.058;2022-09-09T01:35:31;17.90;51.10
326;DHT22;150;52.352;14.058;2022-09-09T01:38:00;17.80;50.90
326;DHT22;150;52.352;14.058;2022-09-09T01:40:27;17.80;50.60
326;DHT22;150;52.352;14.058;2022-09-09T01:42:55;17.80;50.60
326;DHT22;150;52.352;14.058;2022-09-09T01:45:23;17.60;51.00
326;DHT22;150;52.352;14.058;2022-09-09T01:47:52;17.60;51.40
326;DHT22;150;52.352;14.058;2022-09-09T01:50:20;17.60;51.40
326;DHT22;150;52.352;14.058;2022-09-09T01:52:51;17.50;51.50
326;DHT22;150;52.352;14.058;2022-09-09T01:55:23;17.50;51.40
326;DHT22;150;52.352;14.058;2022-09-09T01:58:06;17.50;51.30
326;DHT22;150;52.352;14.058;2022-09-09T02:00:55;17.50;51.30
326;DHT22;150;52.352;14.058;2022-09-09T02:03:26;17.50;51.30
326;DHT22;150;52.352;14.058;2022-09-09T02:06:00;17.50;50.90
326;DHT22;150;52.352;14.058;2022-09-09T02:08:38;17.50;50.90
326;DHT22;150;52.352;14.058;2022-09-09T02:11:11;17.50;51.00
326;DHT22;150;52.352;14.058;2022-09-09T02:13:41;17.40;50.90
326;DHT22;150;52.352;14.058;2022-09-09T02:16:13;17.40;50.50
326;DHT22;150;52.352;14.058;2022-09-09T02:18:47;17.40;50.40
326;DHT22;150;52.352;14.058;2022-09-09T02:21:15;17.40;50.40
326;DHT22;150;52.352;14.058;2022-09-09T02:23:44;17.30;50.50
326;DHT22;150;52.352;14.058;2022-09-09T02:26:14;17.30;50.40
326;DHT22;150;52.352;14.058;2022-09-09T02:28:48;17.30;50.20
326;DHT22;150;52.352;14.058;2022-09-09T02:31:15;17.30;50.50
326;DHT22;150;52.352;14.058;2022-09-09T02:33:48;17.20;50.40
326;DHT22;150;52.352;14.058;2022-09-09T02:36:19;17.30;50.30
326;DHT22;150;52.352;14.058;2022-09-09T02:38:48;17.20;50.10
326;DHT22;150;52.352;14.058;2022-09-09T02:41:19;17.20;50.40
326;DHT22;150;52.352;14.058;2022-09-09T02:43:49;17.10;50.40
326;DHT22;150;52.352;14.058;2022-09-09T02:46:25;17.00;50.20
326;DHT22;150;52.352;14.058;2022-09-09T02:48:59;17.00;50.40
326;DHT22;150;52.352;14.058;2022-09-09T02:51:35;17.00;50.70
326;DHT22;150;52.352;14.058;2022-09-09T02:54:09;17.00;50.40
326;DHT22;150;52.352;14.058;2022-09-09T02:56:41;16.90;50.00
326;DHT22;150;52.352;14.058;2022-09-09T02:59:11;16.90;50.10
326;DHT22;150;52.352;14.058;2022-09-09T03:01:38;16.90;50.40
326;DHT22;150;52.352;14.058;2022-09-09T03:04:05;16.80;50.80
326;DHT22;150;52.352;14.058;2022-09-09T03:06:32;16.80;51.30
326;DHT22;150;52.352;14.058;2022-09-09T03:09:01;16.80;51.10
326;DHT22;150;52.352;14.058;2022-09-09T03:11:28;16.80;51.10
326;DHT22;150;52.352;14.058;2022-09-09T03:13:55;16.80;51.30
326;DHT22;150;52.352;14.058;2022-09-09T03:16:23;16.70;51.10
326;DHT22;150;52.352;14.058;2022-09-09T03:18:50;16.70;51.30
326;DHT22;150;52.352;14.058;2022-09-09T03:21:17;16.70;51.40
326;DHT22;150;52.352;14.058;2022-09-09T03:23:44;16.70;51.80
326;DHT22;150;52.352;14.058;2022-09-09T03:26:11;16.60;51.60
326;DHT22;150;52.352;14.058;2022-09-09T03:28:40;16.60;52.20
326;DHT22;150;52.352;14.058;2022-09-09T03:31:07;16.60;52.60
326;DHT22;150;52.352;14.058;2022-09-09T03:33:38;16.60;53.00
326;DHT22;150;52.352;14.058;2022-09-09T03:36:05;16.60;53.80
326;DHT22;150;52.352;14.058;2022-09-09T03:38:33;16.60;54.10
326;DHT22;150;52.352;14.058;2022-09-09T03:41:00;16.60;54.00
326;DHT22;150;52.352;14.058;2022-09-09T03:43:28;16.70;53.90
326;DHT22;150;52.352;14.058;2022-09-09T03:45:55;16.70;53.00
326;DHT22;150;52.352;14.058;2022-09-09T03:48:22;16.70;53.40
326;DHT22;150;52.352;14.058;2022-09-09T03:50:52;16.70;53.70
326;DHT22;150;52.352;14.058;2022-09-09T03:53:20;16.70;53.70
326;DHT22;150;52.352;14.058;2022-09-09T03:55:49;16.70;54.40
326;DHT22;150;52.352;14.058;2022-09-09T03:58:18;16.80;53.40
326;DHT22;150;52.352;14.058;2022-09-09T04:00:53;16.80;53.10
326;DHT22;150;52.352;14.058;2022-09-09T04:03:20;16.80;53.10
326;DHT22;150;52.352;14.058;2022-09-09T04:05:48;16.90;52.80
326;DHT22;150;52.352;14.058;2022-09-09T04:08:16;16.90;52.70
326;DHT22;150;52.352;14.058;2022-09-09T04:10:44;16.80;52.60
326;DHT22;150;52.352;14.058;2022-09-09T04:13:12;16.80;52.70
326;DHT22;150;52.352;14.058;2022-09-09T04:15:42;16.80;52.80
326;DHT22;150;52.352;14.058;2022-09-09T04:18:08;16.90;52.50
326;DHT22;150;52.352;14.058;2022-09-09T04:20:35;16.90;52.20
326;DHT22;150;52.352;14.058;2022-09-09T04:23:02;16.90;52.00
326;DHT22;150;52.352;14.058;2022-09-09T04:25:30;16.80;52.10
326;DHT22;150;52.352;14.058;2022-09-09T04:27:57;16.90;52.20
326;DHT22;150;52.352;14.058;2022-09-09T04:30:25;16.90;52.10
326;DHT22;150;52.352;14.058;2022-09-09T04:32:52;16.90;52.10
326;DHT22;150;52.352;14.058;2022-09-09T04:35:19;16.90;51.70
326;DHT22;150;52.352;14.058;2022-09-09T04:37:46;16.80;51.20
326;DHT22;150;52.352;14.058;2022-09-09T04:40:14;16.80;51.60
326;DHT22;150;52.352;14.058;2022-09-09T04:42:41;16.80;51.90
326;DHT22;150;52.352;14.058;2022-09-09T04:45:09;16.80;51.80
326;DHT22;150;52.352;14.058;2022-09-09T04:47:38;16.70;52.00
326;DHT22;150;52.352;14.058;2022-09-09T04:50:05;16.70;52.10
326;DHT22;150;52.352;14.058;2022-09-09T04:52:34;16.70;52.50
326;DHT22;150;52.352;14.058;2022-09-09T04:55:00;16.80;52.80
326;DHT22;150;52.352;14.058;2022-09-09T04:57:27;16.90;52.80
326;DHT22;150;52.352;14.058;2022-09-09T04:59:55;16.90;52.60
326;DHT22;150;52.352;14.058;2022-09-09T05:02:22;16.90;52.30
326;DHT22;150;52.352;14.058;2022-09-09T05:04:48;17.00;52.20
326;DHT22;150;52.352;14.058;2022-09-09T05:07:15;17.10;52.30
326;DHT22;150;52.352;14.058;2022-09-09T05:09:42;17.20;52.20
326;DHT22;150;52.352;14.058;2022-09-09T05:12:10;17.20;51.70
326;DHT22;150;52.352;14.058;2022-09-09T05:14:36;17.30;51.30
326;DHT22;150;52.352;14.058;2022-09-09T05:17:04;17.30;51.30
326;DHT22;150;52.352;14.058;2022-09-09T05:19:31;17.30;50.90
326;DHT22;150;52.352;14.058;2022-09-09T05:21:58;17.40;51.10
326;DHT22;150;52.352;14.058;2022-09-09T05:24:24;17.40;50.80
326;DHT22;150;52.352;14.058;2022-09-09T05:26:51;17.50;51.30
326;DHT22;150;52.352;14.058;2022-09-09T05:29:17;17.50;51.10
326;DHT22;150;52.352;14.058;2022-09-09T05:31:45;17.60;51.30
326;DHT22;150;52.352;14.058;2022-09-09T05:34:13;17.70;51.20
326;DHT22;150;52.352;14.058;2022-09-09T05:36:40;17.80;50.00
326;DHT22;150;52.352;14.058;2022-09-09T05:39:07;17.90;50.10
326;DHT22;150;52.352;14.058;2022-09-09T05:41:33;18.00;49.50
326;DHT22;150;52.352;14.058;2022-09-09T05:44:01;18.20;49.60
326;DHT22;150;52.352;14.058;2022-09-09T05:46:28;18.30;49.50
326;DHT22;150;52.352;14.058;2022-09-09T05:48:55;18.30;49.70
326;DHT22;150;52.352;14.058;2022-09-09T05:51:26;18.50;49.40
326;DHT22;150;52.352;14.058;2022-09-09T05:53:53;18.50;48.30
326;DHT22;150;52.352;14.058;2022-09-09T05:56:21;18.70;47.90
326;DHT22;150;52.352;14.058;2022-09-09T05:58:50;18.80;47.10
326;DHT22;150;52.352;14.058;2022-09-09T06:01:18;18.90;47.10
326;DHT22;150;52.352;14.058;2022-09-09T06:03:47;18.90;47.10
326;DHT22;150;52.352;14.058;2022-09-09T06:06:36;18.90;47.70
326;DHT22;150;52.352;14.058;2022-09-09T06:09:06;19.00;49.20
326;DHT22;150;52.352;14.058;2022-09-09T06:11:41;19.00;46.90
326;DHT22;150;52.352;14.058;2022-09-09T06:14:17;19.00;47.40
326;DHT22;150;52.352;14.058;2022-09-09T06:16:44;19.00;47.90
326;DHT22;150;52.352;14.058;2022-09-09T06:19:18;19.00;47.60
326;DHT22;150;52.352;14.058;2022-09-09T06:21:47;19.20;47.10
326;DHT22;150;52.352;14.058;2022-09-09T06:24:27;19.30;47.30
326;DHT22;150;52.352;14.058;2022-09-09T06:27:04;19.40;47.40
326;DHT22;150;52.352;14.058;2022-09-09T06:29:42;19.40;46.00
326;DHT22;150;52.352;14.058;2022-09-09T06:32:23;19.30;46.00
326;DHT22;150;52.352;14.058;2022-09-09T06:35:01;19.50;46.20
326;DHT22;150;52.352;14.058;2022-09-09T06:37:45;19.60;46.60
326;DHT22;150;52.352;14.058;2022-09-09T06:40:38;19.80;46.50
326;DHT22;150;52.352;14.058;2022-09-09T06:43:14;20.00;46.20
326;DHT22;150;52.352;14.058;2022-09-09T06:45:40;20.20;45.30
326;DHT22;150;52.352;14.058;2022-09-09T06:48:07;20.20;42.90
326;DHT22;150;52.352;14.058;2022-09-09T06:50:38;20.30;43.10
326;DHT22;150;52.352;14.058;2022-09-09T06:53:06;20.40;43.90
326;DHT22;150;52.352;14.058;2022-09-09T06:55:55;20.40;42.90
326;DHT22;150;52.352;14.058;2022-09-09T06:58:22;20.50;42.40
326;DHT22;150;52.352;14.058;2022-09-09T07:07:45;20.80;42.00
326;DHT22;150;52.352;14.058;2022-09-09T07:10:13;20.90;42.10
326;DHT22;150;52.352;14.058;2022-09-09T07:12:39;21.10;42.30
326;DHT22;150;52.352;14.058;2022-09-09T07:15:07;21.20;39.70
326;DHT22;150;52.352;14.058;2022-09-09T07:17:33;21.10;38.90
326;DHT22;150;52.352;14.058;2022-09-09T07:20:01;21.00;37.20
326;DHT22;150;52.352;14.058;2022-09-09T07:22:29;20.80;37.50
326;DHT22;150;52.352;14.058;2022-09-09T07:24:55;20.70;38.00
326;DHT22;150;52.352;14.058;2022-09-09T07:27:23;20.80;38.80
326;DHT22;150;52.352;14.058;2022-09-09T07:29:50;20.80;39.40
326;DHT22;150;52.352;14.058;2022-09-09T07:32:18;20.80;38.10
326;DHT22;150;52.352;14.058;2022-09-09T07:34:45;20.60;39.30
326;DHT22;150;52.352;14.058;2022-09-09T07:37:12;20.70;39.70
326;DHT22;150;52.352;14.058;2022-09-09T07:39:39;20.60;39.40
326;DHT22;150;52.352;14.058;2022-09-09T07:42:06;20.60;39.40
326;DHT22;150;52.352;14.058;2022-09-09T07:44:36;20.50;38.80
326;DHT22;150;52.352;14.058;2022-09-09T07:47:05;20.30;39.00
326;DHT22;150;52.352;14.058;2022-09-09T07:49:32;20.20;39.90
326;DHT22;150;52.352;14.058;2022-09-09T07:51:59;20.30;40.80
326;DHT22;150;52.352;14.058;2022-09-09T07:54:26;20.30;41.60
326;DHT22;150;52.352;14.058;2022-09-09T07:56:53;20.50;41.80
326;DHT22;150;52.352;14.058;2022-09-09T07:59:20;20.70;41.90
326;DHT22;150;52.352;14.058;2022-09-09T08:01:49;20.70;41.90
326;DHT22;150;52.352;14.058;2022-09-09T08:04:20;20.60;41.80
326;DHT22;150;52.352;14.058;2022-09-09T08:06:49;20.70;42.00
326;DHT22;150;52.352;14.058;2022-09-09T08:09:17;20.80;41.10
326;DHT22;150;52.352;14.058;2022-09-09T08:11:44;20.80;41.20
326;DHT22;150;52.352;14.058;2022-09-09T08:14:11;21.00;42.20
326;DHT22;150;52.352;14.058;2022-09-09T08:16:41;21.10;41.20
326;DHT22;150;52.352;14.058;2022-09-09T08:19:09;21.20;40.60
326;DHT22;150;52.352;14.058;2022-09-09T08:21:38;21.20;39.50
326;DHT22;150;52.352;14.058;2022-09-09T08:24:06;21.30;39.70
326;DHT22;150;52.352;14.058;2022-09-09T08:26:34;21.40;40.20
326;DHT22;150;52.352;14.058;2022-09-09T08:29:03;21.40;39.40
326;DHT22;150;52.352;14.058;2022-09-09T08:31:32;21.40;39.70
326;DHT22;150;52.352;14.058;2022-09-09T08:34:00;21.50;39.10
326;DHT22;150;52.352;14.058;2022-09-09T08:36:30;21.50;39.00
326;DHT22;150;52.352;14.058;2022-09-09T08:38:59;21.50;39.50
326;DHT22;150;52.352;14.058;2022-09-09T08:41:55;21.70;39.90
326;DHT22;150;52.352;14.058;2022-09-09T08:44:36;21.70;39.00
326;DHT22;150;52.352;14.058;2022-09-09T08:47:11;21.70;38.70
326;DHT22;150;52.352;14.058;2022-09-09T08:49:58;21.60;37.80
326;DHT22;150;52.352;14.058;2022-09-09T08:52:31;21.60;37.90
326;DHT22;150;52.352;14.058;2022-09-09T08:55:10;21.70;38.60
326;DHT22;150;52.352;14.058;2022-09-09T08:57:39;21.70;37.60
326;DHT22;150;52.352;14.058;2022-09-09T09:00:09;21.60;37.60
326;DHT22;150;52.352;14.058;2022-09-09T09:02:42;21.50;37.10
326;DHT22;150;52.352;14.058;2022-09-09T09:05:19;21.30;37.40
326;DHT22;150;52.352;14.058;2022-09-09T09:07:59;21.30;38.30
326;DHT22;150;52.352;14.058;2022-09-09T09:10:39;21.20;38.90
326;DHT22;150;52.352;14.058;2022-09-09T09:13:14;21.20;39.90
326;DHT22;150;52.352;14.058;2022-09-09T09:15:42;21.20;39.60
326;DHT22;150;52.352;14.058;2022-09-09T09:18:12;21.20;39.10
326;DHT22;150;52.352;14.058;2022-09-09T09:20:46;21.40;39.60
326;DHT22;150;52.352;14.058;2022-09-09T09:23:22;21.40;38.60
326;DHT22;150;52.352;14.058;2022-09-09T09:25:50;21.50;38.70
326;DHT22;150;52.352;14.058;2022-09-09T09:28:23;21.50;38.70
326;DHT22;150;52.352;14.058;2022-09-09T09:30:53;21.60;37.50
326;DHT22;150;52.352;14.058;2022-09-09T09:33:25;21.70;38.10
326;DHT22;150;52.352;14.058;2022-09-09T09:35:54;21.80;38.10
326;DHT22;150;52.352;14.058;2022-09-09T09:38:24;21.90;38.10
326;DHT22;150;52.352;14.058;2022-09-09T09:40:53;22.00;37.50
326;DHT22;150;52.352;14.058;2022-09-09T09:43:26;22.20;36.20
326;DHT22;150;52.352;14.058;2022-09-09T09:45:54;22.30;36.20
326;DHT22;150;52.352;14.058;2022-09-09T09:48:21;22.30;35.50
326;DHT22;150;52.352;14.058;2022-09-09T09:50:50;22.40;35.40
326;DHT22;150;52.352;14.058;2022-09-09T09:53:23;22.50;34.80
326;DHT22;150;52.352;14.058;2022-09-09T09:55:56;22.50;35.40
326;DHT22;150;52.352;14.058;2022-09-09T09:58:25;22.60;35.90
326;DHT22;150;52.352;14.058;2022-09-09T10:00:53;22.60;35.30
326;DHT22;150;52.352;14.058;2022-09-09T10:03:24;22.70;34.90
326;DHT22;150;52.352;14.058;2022-09-09T10:05:51;22.60;35.50
326;DHT22;150;52.352;14.058;2022-09-09T10:08:18;22.40;35.40
326;DHT22;150;52.352;14.058;2022-09-09T10:10:54;22.60;36.00
326;DHT22;150;52.352;14.058;2022-09-09T10:13:28;22.70;34.70
326;DHT22;150;52.352;14.058;2022-09-09T10:16:07;22.90;34.20
326;DHT22;150;52.352;14.058;2022-09-09T10:18:45;23.00;34.90
326;DHT22;150;52.352;14.058;2022-09-09T10:21:21;23.20;35.00
326;DHT22;150;52.352;14.058;2022-09-09T10:24:02;23.30;34.00
326;DHT22;150;52.352;14.058;2022-09-09T10:26:42;23.40;33.40
326;DHT22;150;52.352;14.058;2022-09-09T10:29:22;23.60;33.50
326;DHT22;150;52.352;14.058;2022-09-09T10:31:59;23.80;33.30
326;DHT22;150;52.352;14.058;2022-09-09T10:34:47;24.10;32.40
326;DHT22;150;52.352;14.058;2022-09-09T10:37:21;24.00;31.20
326;DHT22;150;52.352;14.058;2022-09-09T10:39:56;23.80;30.80
326;DHT22;150;52.352;14.058;2022-09-09T10:42:31;24.00;32.00
326;DHT22;150;52.352;14.058;2022-09-09T10:45:10;24.20;30.90
326;DHT22;150;52.352;14.058;2022-09-09T10:50:42;24.40;30.40
326;DHT22;150;52.352;14.058;2022-09-09T10:53:17;24.50;30.30
326;DHT22;150;52.352;14.058;2022-09-09T10:55:50;24.70;29.20
326;DHT22;150;52.352;14.058;2022-09-09T10:58:23;24.70;29.30
326;DHT22;150;52.352;14.058;2022-09-09T11:00:54;24.70;29.40
326;DHT22;150;52.352;14.058;2022-09-09T11:03:25;25.00;28.00
326;DHT22;150;52.352;14.058;2022-09-09T11:05:56;25.00;26.50
326;DHT22;150;52.352;14.058;2022-09-09T11:08:26;24.90;27.10
326;DHT22;150;52.352;14.058;2022-09-09T11:10:58;24.80;26.90
326;DHT22;150;52.352;14.058;2022-09-09T11:13:33;24.60;28.20
326;DHT22;150;52.352;14.058;2022-09-09T11:16:05;24.70;28.30
326;DHT22;150;52.352;14.058;2022-09-09T11:18:39;24.70;27.70
326;DHT22;150;52.352;14.058;2022-09-09T11:21:14;24.90;27.30
326;DHT22;150;52.352;14.058;2022-09-09T11:23:47;24.90;26.30
326;DHT22;150;52.352;14.058;2022-09-09T11:26:20;24.70;27.00
326;DHT22;150;52.352;14.058;2022-09-09T11:29:03;24.60;27.10
326;DHT22;150;52.352;14.058;2022-09-09T11:31:44;24.70;26.80
326;DHT22;150;52.352;14.058;2022-09-09T11:34:19;24.80;26.60
326;DHT22;150;52.352;14.058;2022-09-09T11:37:10;24.90;26.60
326;DHT22;150;52.352;14.058;2022-09-09T11:40:08;24.90;25.90
326;DHT22;150;52.352;14.058;2022-09-09T11:42:36;24.60;26.10
326;DHT22;150;52.352;14.058;2022-09-09T11:45:18;24.50;25.90
326;DHT22;150;52.352;14.058;2022-09-09T11:47:52;24.50;26.10
326;DHT22;150;52.352;14.058;2022-09-09T11:50:31;24.50;27.00
326;DHT22;150;52.352;14.058;2022-09-09T11:53:18;24.60;26.20
326;DHT22;150;52.352;14.058;2022-09-09T11:55:59;24.60;26.00
326;DHT22;150;52.352;14.058;2022-09-09T11:58:26;24.80;26.80
326;DHT22;150;52.352;14.058;2022-09-09T12:00:55;25.00;25.80
326;DHT22;150;52.352;14.058;2022-09-09T12:03:35;25.20;25.10
326;DHT22;150;52.352;14.058;2022-09-09T12:06:11;25.30;24.60
326;DHT22;150;52.352;14.058;2022-09-09T12:08:42;25.30;24.90
326;DHT22;150;52.352;14.058;2022-09-09T12:11:10;25.40;25.20
326;DHT22;150;52.352;14.058;2022-09-09T12:13:37;25.40;25.20
326;DHT22;150;52.352;14.058;2022-09-09T12:16:05;25.20;25.10
326;DHT22;150;52.352;14.058;2022-09-09T12:19:03;25.20;25.10
326;DHT22;150;52.352;14.058;2022-09-09T12:21:35;25.10;24.90
326;DHT22;150;52.352;14.058;2022-09-09T12:24:08;25.20;25.10
326;DHT22;150;52.352;14.058;2022-09-09T12:26:39;25.40;26.10
326;DHT22;150;52.352;14.058;2022-09-09T12:29:14;25.60;25.30
326;DHT22;150;52.352;14.058;2022-09-09T12:31:49;25.50;23.80
326;DHT22;150;52.352;14.058;2022-09-09T12:34:30;25.50;24.10
326;DHT22;150;52.352;14.058;2022-09-09T12:37:02;25.30;24.00
326;DHT22;150;52.352;14.058;2022-09-09T12:39:34;25.10;23.90
326;DHT22;150;52.352;14.058;2022-09-09T12:42:01;24.90;24.30
326;DHT22;150;52.352;14.058;2022-09-09T12:44:30;24.70;24.80
326;DHT22;150;52.352;14.058;2022-09-09T12:47:01;24.80;24.90
326;DHT22;150;52.352;14.058;2022-09-09T12:49:30;24.90;27.20
326;DHT22;150;52.352;14.058;2022-09-09T12:52:02;24.90;29.80
326;DHT22;150;52.352;14.058;2022-09-09T12:54:31;25.00;29.80
326;DHT22;150;52.352;14.058;2022-09-09T12:56:58;25.00;30.90
326;DHT22;150;52.352;14.058;2022-09-09T12:59:26;25.00;31.50
326;DHT22;150;52.352;14.058;2022-09-09T13:01:57;24.90;31.50
326;DHT22;150;52.352;14.058;2022-09-09T13:04:25;24.80;31.50
326;DHT22;150;52.352;14.058;2022-09-09T13:06:52;24.70;32.60
326;DHT22;150;52.352;14.058;2022-09-09T13:09:19;24.70;33.40
326;DHT22;150;52.352;14.058;2022-09-09T13:11:49;24.70;34.50
326;DHT22;150;52.352;14.058;2022-09-09T13:14:18;24.60;35.40
326;DHT22;150;52.352;14.058;2022-09-09T13:16:55;24.70;35.40
326;DHT22;150;52.352;14.058;2022-09-09T13:19:22;24.60;35.50
326;DHT22;150;52.352;14.058;2022-09-09T13:21:52;24.60;37.60
326;DHT22;150;52.352;14.058;2022-09-09T13:24:27;24.70;37.50
326;DHT22;150;52.352;14.058;2022-09-09T13:26:56;24.70;36.10
326;DHT22;150;52.352;14.058;2022-09-09T13:29:23;24.80;33.80
326;DHT22;150;52.352;14.058;2022-09-09T13:31:50;24.90;34.60
326;DHT22;150;52.352;14.058;2022-09-09T13:34:29;24.90;33.20
326;DHT22;150;52.352;14.058;2022-09-09T13:37:00;25.00;32.20
326;DHT22;150;52.352;14.058;2022-09-09T13:39:28;25.10;32.30
326;DHT22;150;52.352;14.058;2022-09-09T13:41:55;25.10;31.40
326;DHT22;150;52.352;14.058;2022-09-09T13:44:25;25.10;32.10
326;DHT22;150;52.352;14.058;2022-09-09T13:47:03;25.00;32.70
326;DHT22;150;52.352;14.058;2022-09-09T13:49:31;25.00;32.00
326;DHT22;150;52.352;14.058;2022-09-09T13:52:10;25.00;32.30
326;DHT22;150;52.352;14.058;2022-09-09T13:54:39;25.00;30.20
326;DHT22;150;52.352;14.058;2022-09-09T13:57:13;25.00;30.20
326;DHT22;150;52.352;14.058;2022-09-09T13:59:40;25.10;30.10
326;DHT22;150;52.352;14.058;2022-09-09T14:02:07;25.20;29.40
326;DHT22;150;52.352;14.058;2022-09-09T14:04:33;25.10;28.30
326;DHT22;150;52.352;14.058;2022-09-09T14:07:01;25.10;25.90
326;DHT22;150;52.352;14.058;2022-09-09T14:09:29;25.10;25.40
326;DHT22;150;52.352;14.058;2022-09-09T14:11:56;25.10;25.00
326;DHT22;150;52.352;14.058;2022-09-09T14:14:23;24.90;25.20
326;DHT22;150;52.352;14.058;2022-09-09T14:16:50;24.70;26.40
326;DHT22;150;52.352;14.058;2022-09-09T14:19:17;24.70;26.60
326;DHT22;150;52.352;14.058;2022-09-09T14:21:43;24.80;27.20
326;DHT22;150;52.352;14.058;2022-09-09T14:24:10;24.80;26.70
326;DHT22;150;52.352;14.058;2022-09-09T14:26:39;24.70;26.80
326;DHT22;150;52.352;14.058;2022-09-09T14:29:06;24.50;26.00
326;DHT22;150;52.352;14.058;2022-09-09T14:31:32;24.50;26.80
326;DHT22;150;52.352;14.058;2022-09-09T14:33:59;24.30;27.20
326;DHT22;150;52.352;14.058;2022-09-09T14:36:26;24.30;27.50
326;DHT22;150;52.352;14.058;2022-09-09T14:38:52;24.30;28.00
326;DHT22;150;52.352;14.058;2022-09-09T14:41:19;24.50;27.80
326;DHT22;150;52.352;14.058;2022-09-09T14:43:49;24.60;26.50
326;DHT22;150;52.352;14.058;2022-09-09T14:46:20;24.90;25.80
326;DHT22;150;52.352;14.058;2022-09-09T14:48:56;24.90;24.10
326;DHT22;150;52.352;14.058;2022-09-09T14:51:24;24.70;23.70
326;DHT22;150;52.352;14.058;2022-09-09T14:53:53;24.50;23.60
326;DHT22;150;52.352;14.058;2022-09-09T14:56:22;24.30;24.50
326;DHT22;150;52.352;14.058;2022-09-09T14:58:52;24.20;25.30
326;DHT22;150;52.352;14.058;2022-09-09T15:01:20;24.20;26.20
326;DHT22;150;52.352;14.058;2022-09-09T15:03:50;24.20;26.60
326;DHT22;150;52.352;14.058;2022-09-09T15:06:18;24.10;27.20
326;DHT22;150;52.352;14.058;2022-09-09T15:08:46;24.10;27.40
326;DHT22;150;52.352;14.058;2022-09-09T15:11:14;23.90;27.80
326;DHT22;150;52.352;14.058;2022-09-09T15:13:42;23.80;27.90
326;DHT22;150;52.352;14.058;2022-09-09T15:16:12;23.80;28.70
326;DHT22;150;52.352;14.058;2022-09-09T15:18:39;23.80;28.50
326;DHT22;150;52.352;14.058;2022-09-09T15:21:08;23.80;28.70
326;DHT22;150;52.352;14.058;2022-09-09T15:23:35;23.80;28.80
326;DHT22;150;52.352;14.058;2022-09-09T15:26:03;23.80;28.60
326;DHT22;150;52.352;14.058;2022-09-09T15:28:31;23.80;28.20
326;DHT22;150;52.352;14.058;2022-09-09T15:30:59;23.80;26.80
326;DHT22;150;52.352;14.058;2022-09-09T15:33:33;23.80;27.00
326;DHT22;150;52.352;14.058;2022-09-09T15:36:12;23.70;27.20
326;DHT22;150;52.352;14.058;2022-09-09T15:38:39;23.70;27.40
326;DHT22;150;52.352;14.058;2022-09-09T15:41:06;23.60;27.90
326;DHT22;150;52.352;14.058;2022-09-09T15:43:33;23.50;28.50
326;DHT22;150;52.352;14.058;2022-09-09T15:46:09;23.60;28.90
326;DHT22;150;52.352;14.058;2022-09-09T15:48:49;23.60;29.10
326;DHT22;150;52.352;14.058;2022-09-09T15:51:16;23.50;29.60
326;DHT22;150;52.352;14.058;2022-09-09T15:53:44;23.50;29.90
326;DHT22;150;52.352;14.058;2022-09-09T15:56:10;23.50;29.90
326;DHT22;150;52.352;14.058;2022-09-09T15:58:37;23.50;29.50
326;DHT22;150;52.352;14.058;2022-09-09T16:01:04;23.50;29.40
326;DHT22;150;52.352;14.058;2022-09-09T16:03:33;23.50;29.50
326;DHT22;150;52.352;14.058;2022-09-09T16:06:03;23.50;30.00
326;DHT22;150;52.352;14.058;2022-09-09T16:08:32;23.40;30.30
326;DHT22;150;52.352;14.058;2022-09-09T16:11:05;23.40;30.70
326;DHT22;150;52.352;14.058;2022-09-09T16:13:33;23.30;32.30
326;DHT22;150;52.352;14.058;2022-09-09T16:16:00;23.20;32.00
326;DHT22;150;52.352;14.058;2022-09-09T16:18:33;22.90;32.90
326;DHT22;150;52.352;14.058;2022-09-09T16:20:59;22.60;33.30
326;DHT22;150;52.352;14.058;2022-09-09T16:23:28;22.20;29.80
326;DHT22;150;52.352;14.058;2022-09-09T16:25:55;21.90;31.50
326;DHT22;150;52.352;14.058;2022-09-09T16:28:22;21.50;31.60
326;DHT22;150;52.352;14.058;2022-09-09T16:30:48;21.00;33.90
326;DHT22;150;52.352;14.058;2022-09-09T16:33:15;20.40;34.70
326;DHT22;150;52.352;14.058;2022-09-09T16:35:42;19.90;38.10
326;DHT22;150;52.352;14.058;2022-09-09T16:38:09;19.50;35.10
326;DHT22;150;52.352;14.058;2022-09-09T16:40:38;18.80;33.40
326;DHT22;150;52.352;14.058;2022-09-09T16:43:05;17.40;35.60
326;DHT22;150;52.352;14.058;2022-09-09T16:45:32;16.60;38.30
326;DHT22;150;52.352;14.058;2022-09-09T16:47:59;16.10;42.80
326;DHT22;150;52.352;14.058;2022-09-09T16:50:26;15.90;43.80
326;DHT22;150;52.352;14.058;2022-09-09T16:52:53;15.70;47.50